sensor_id;sensor_type;location;lat;lon;timestamp;pressure;altitude;pressure_sealevel;temperature;humidity
14273;BME280;7220;49.450;11.052;2022-09-09T00:02:02;97828.91;;;15.38;93.07
14273;BME280;7220;49.450;11.052;2022-09-09T00:10:34;97831.34;;;15.29;94.43
14273;BME280;7220;49.450;11.052;2022-09-09T00:14:56;97818.31;;;15.25;94.48
14273;BME280;7220;49.450;11.052;2022-09-09T00:19:20;97806.00;;;15.22;94.13
14273;BME280;7220;49.450;11.052;2022-09-09T00:23:31;97817.94;;;15.18;94.70
14273;BME280;7220;49.450;11.052;2022-09-09T00:27:45;97816.97;;;15.19;95.03
14273;BME280;7220;49.450;11.052;2022-09-09T00:31:46;97796.75;;;15.15;94.42
14273;BME280;7220;49.450;11.052;2022-09-09T00:35:49;97810.88;;;15.17;94.12
14273;BME280;7220;49.450;11.052;2022-09-09T00:39:51;97818.19;;;15.15;94.35
14273;BME280;7220;49.450;11.052;2022-09-09T00:48:10;97813.56;;;15.06;94.79
14273;BME280;7220;49.450;11.052;2022-09-09T00:57:03;97806.34;;;14.95;94.50
14273;BME280;7220;49.450;11.052;2022-09-09T01:01:09;97802.09;;;14.92;94.54
14273;BME280;7220;49.450;11.052;2022-09-09T01:05:57;97811.22;;;14.90;95.14
14273;BME280;7220;49.450;11.052;2022-09-09T01:10:00;97810.38;;;14.89;94.67
14273;BME280;7220;49.450;11.052;2022-09-09T01:14:14;97814.75;;;14.90;94.24
14273;BME280;7220;49.450;11.052;2022-09-09T01:18:20;97806.97;;;14.87;94.59
14273;BME280;7220;49.450;11.052;2022-09-09T01:26:26;97807.44;;;14.81;94.58
14273;BME280;7220;49.450;11.052;2022-09-09T01:30:28;97812.91;;;14.79;95.67
14273;BME280;7220;49.450;11.052;2022-09-09T01:34:38;97814.25;;;14.74;96.33
14273;BME280;7220;49.450;11.052;2022-09-09T01:38:40;97811.78;;;14.71;96.24
14273;BME280;7220;49.450;11.052;2022-09-09T01:42:40;97822.94;;;14.64;96.48
14273;BME280;7220;49.450;11.052;2022-09-09T01:46:41;97816.84;;;14.62;97.13
14273;BME280;7220;49.450;11.052;2022-09-09T01:50:41;97811.63;;;14.61;97.60
14273;BME280;7220;49.450;11.052;2022-09-09T01:54:41;97806.63;;;14.56;97.68
14273;BME280;7220;49.450;11.052;2022-09-09T02:07:01;97807.09;;;14.50;98.29
14273;BME280;7220;49.450;11.052;2022-09-09T02:11:05;97807.09;;;14.50;98.91
14273;BME280;7220;49.450;11.052;2022-09-09T02:15:20;97806.22;;;14.49;99.08
14273;BME280;7220;49.450;11.052;2022-09-09T02:19:28;97801.09;;;14.46;99.04
14273;BME280;7220;49.450;11.052;2022-09-09T02:23:31;97805.63;;;14.46;99.21
14273;BME280;7220;49.450;11.052;2022-09-09T02:27:33;97804.66;;;14.47;99.51
14273;BME280;7220;49.450;11.052;2022-09-09T02:31:33;97796.84;;;14.44;99.30
14273;BME280;7220;49.450;11.052;2022-09-09T02:35:37;97788.75;;;14.45;99.45
14273;BME280;7220;49.450;11.052;2022-09-09T02:39:37;97794.78;;;14.47;99.55
14273;BME280;7220;49.450;11.052;2022-09-09T02:43:38;97791.16;;;14.48;99.59
14273;BME280;7220;49.450;11.052;2022-09-09T02:47:44;97808.06;;;14.49;99.68
14273;BME280;7220;49.450;11.052;2022-09-09T02:52:02;97798.34;;;14.48;99.57
14273;BME280;7220;49.450;11.052;2022-09-09T02:56:09;97795.16;;;14.43;98.96
14273;BME280;7220;49.450;11.052;2022-09-09T03:00:13;97796.84;;;14.44;99.29
14273;BME280;7220;49.450;11.052;2022-09-09T03:04:14;97810.47;;;14.41;99.50
14273;BME280;7220;49.450;11.052;2022-09-09T03:08:15;97806.72;;;14.43;99.28
14273;BME280;7220;49.450;11.052;2022-09-09T03:12:16;97792.72;;;14.40;99.70
14273;BME280;7220;49.450;11.052;2022-09-09T03:16:16;97795.50;;;14.38;100.00
14273;BME280;7220;49.450;11.052;2022-09-09T03:20:16;97793.69;;;14.39;99.27
14273;BME280;7220;49.450;11.052;2022-09-09T03:24:17;97803.50;;;14.38;100.00
14273;BME280;7220;49.450;11.052;2022-09-09T03:28:18;97804.59;;;14.35;99.56
14273;BME280;7220;49.450;11.052;2022-09-09T03:32:18;97800.22;;;14.34;100.00
14273;BME280;7220;49.450;11.052;2022-09-09T03:36:18;97799.50;;;14.32;100.00
14273;BME280;7220;49.450;11.052;2022-09-09T03:40:19;97797.81;;;14.31;100.00
14273;BME280;7220;49.450;11.052;2022-09-09T03:44:20;97794.16;;;14.32;100.00
14273;BME280;7220;49.450;11.052;2022-09-09T03:48:20;97790.75;;;14.30;100.00
14273;BME280;7220;49.450;11.052;2022-09-09T03:52:20;97791.50;;;14.32;100.00
14273;BME280;7220;49.450;11.052;2022-09-09T03:56:24;97794.16;;;14.32;100.00
14273;BME280;7220;49.450;11.052;2022-09-09T04:00:25;97793.28;;;14.32;100.00
14273;BME280;7220;49.450;11.052;2022-09-09T04:04:26;97784.19;;;14.34;100.00
14273;BME280;7220;49.450;11.052;2022-09-09T04:08:27;97780.78;;;14.32;100.00
14273;BME280;7220;49.450;11.052;2022-09-09T04:12:27;97794.66;;;14.38;100.00
14273;BME280;7220;49.450;11.052;2022-09-09T04:16:28;97793.91;;;14.35;100.00
14273;BME280;7220;49.450;11.052;2022-09-09T04:20:28;97782.50;;;14.33;100.00
14273;BME280;7220;49.450;11.052;2022-09-09T04:24:29;97788.81;;;14.32;100.00
14273;BME280;7220;49.450;11.052;2022-09-09T04:28:31;97789.91;;;14.30;100.00
14273;BME280;7220;49.450;11.052;2022-09-09T04:32:33;97794.38;;;14.29;100.00
14273;BME280;7220;49.450;11.052;2022-09-09T04:36:33;97789.16;;;14.28;100.00
14273;BME280;7220;49.450;11.052;2022-09-09T04:40:34;97792.91;;;14.25;100.00
14273;BME280;7220;49.450;11.052;2022-09-09T04:44:35;97783.06;;;14.26;100.00
14273;BME280;7220;49.450;11.052;2022-09-09T04:48:36;97792.19;;;14.23;100.00
14273;BME280;7220;49.450;11.052;2022-09-09T04:52:36;97777.31;;;14.19;100.00
14273;BME280;7220;49.450;11.052;2022-09-09T04:56:37;97786.09;;;14.21;100.00
14273;BME280;7220;49.450;11.052;2022-09-09T05:00:37;97799.09;;;14.26;100.00
14273;BME280;7220;49.450;11.052;2022-09-09T05:04:38;97806.28;;;14.25;100.00
14273;BME280;7220;49.450;11.052;2022-09-09T05:08:42;97801.78;;;14.26;100.00
14273;BME280;7220;49.450;11.052;2022-09-09T05:12:42;97811.50;;;14.27;100.00
14273;BME280;7220;49.450;11.052;2022-09-09T05:16:44;97812.34;;;14.27;100.00
14273;BME280;7220;49.450;11.052;2022-09-09T05:20:45;97823.03;;;14.27;100.00
14273;BME280;7220;49.450;11.052;2022-09-09T05:24:45;97811.22;;;14.18;100.00
14273;BME280;7220;49.450;11.052;2022-09-09T05:28:46;97832.13;;;14.25;100.00
14273;BME280;7220;49.450;11.052;2022-09-09T05:32:47;97823.38;;;14.23;100.00
14273;BME280;7220;49.450;11.052;2022-09-09T05:36:48;97824.13;;;14.25;100.00
14273;BME280;7220;49.450;11.052;2022-09-09T05:40:49;97832.00;;;14.26;100.00
14273;BME280;7220;49.450;11.052;2022-09-09T05:44:50;97824.75;;;14.28;100.00
14273;BME280;7220;49.450;11.052;2022-09-09T05:48:51;97845.16;;;14.29;100.00
14273;BME280;7220;49.450;11.052;2022-09-09T05:52:54;97837.88;;;14.31;100.00
14273;BME280;7220;49.450;11.052;2022-09-09T05:56:54;97829.88;;;14.31;100.00
14273;BME280;7220;49.450;11.052;2022-09-09T06:05:19;97834.97;;;14.34;100.00
14273;BME280;7220;49.450;11.052;2022-09-09T06:09:19;97838.38;;;14.36;99.68
14273;BME280;7220;49.450;11.052;2022-09-09T06:13:20;97827.94;;;14.33;99.75
14273;BME280;7220;49.450;11.052;2022-09-09T06:17:20;97834.00;;;14.35;99.75
14273;BME280;7220;49.450;11.052;2022-09-09T06:21:22;97824.91;;;14.38;99.73
14273;BME280;7220;49.450;11.052;2022-09-09T06:25:23;97832.81;;;14.40;99.21
14273;BME280;7220;49.450;11.052;2022-09-09T06:29:25;97833.84;;;14.50;98.99
14273;BME280;7220;49.450;11.052;2022-09-09T06:33:25;97833.13;;;14.59;98.50
14273;BME280;7220;49.450;11.052;2022-09-09T06:37:26;97836.72;;;14.71;98.15
14273;BME280;7220;49.450;11.052;2022-09-09T06:41:29;97837.84;;;14.80;97.52
14273;BME280;7220;49.450;11.052;2022-09-09T06:45:30;97848.31;;;14.94;96.36
14273;BME280;7220;49.450;11.052;2022-09-09T06:49:31;97843.09;;;15.04;96.03
14273;BME280;7220;49.450;11.052;2022-09-09T06:53:33;97851.38;;;15.12;95.22
14273;BME280;7220;49.450;11.052;2022-09-09T06:57:33;97855.31;;;15.31;95.07
14273;BME280;7220;49.450;11.052;2022-09-09T07:01:36;97851.28;;;15.48;93.55
14273;BME280;7220;49.450;11.052;2022-09-09T07:05:36;97849.34;;;15.61;92.90
14273;BME280;7220;49.450;11.052;2022-09-09T07:09:37;97858.09;;;15.75;91.44
14273;BME280;7220;49.450;11.052;2022-09-09T07:13:37;97856.84;;;15.79;90.42
14273;BME280;7220;49.450;11.052;2022-09-09T07:17:37;97853.97;;;15.93;89.89
14273;BME280;7220;49.450;11.052;2022-09-09T07:21:38;97862.94;;;16.04;88.67
14273;BME280;7220;49.450;11.052;2022-09-09T07:25:44;97860.38;;;16.14;87.75
14273;BME280;7220;49.450;11.052;2022-09-09T07:29:45;97865.59;;;16.15;86.92
14273;BME280;7220;49.450;11.052;2022-09-09T07:33:46;97866.59;;;16.14;86.67
14273;BME280;7220;49.450;11.052;2022-09-09T07:37:46;97857.19;;;16.20;86.12
14273;BME280;7220;49.450;11.052;2022-09-09T07:41:48;97863.00;;;16.25;86.08
14273;BME280;7220;49.450;11.052;2022-09-09T07:45:57;97869.94;;;16.28;85.96
14273;BME280;7220;49.450;11.052;2022-09-09T07:49:57;97868.72;;;16.32;84.84
14273;BME280;7220;49.450;11.052;2022-09-09T07:54:01;97872.59;;;16.39;84.26
14273;BME280;7220;49.450;11.052;2022-09-09T07:58:02;97885.78;;;16.42;83.92
14273;BME280;7220;49.450;11.052;2022-09-09T08:02:03;97867.59;;;16.46;83.17
14273;BME280;7220;49.450;11.052;2022-09-09T08:06:06;97875.72;;;16.55;83.44
14273;BME280;7220;49.450;11.052;2022-09-09T08:10:08;97876.16;;;16.61;83.82
14273;BME280;7220;49.450;11.052;2022-09-09T08:14:10;97875.66;;;16.67;82.37
14273;BME280;7220;49.450;11.052;2022-09-09T08:18:11;97868.81;;;16.74;83.18
14273;BME280;7220;49.450;11.052;2022-09-09T08:22:11;97873.66;;;16.80;83.40
14273;BME280;7220;49.450;11.052;2022-09-09T08:26:17;97881.19;;;16.86;82.73
14273;BME280;7220;49.450;11.052;2022-09-09T08:30:19;97879.56;;;16.95;81.81
14273;BME280;7220;49.450;11.052;2022-09-09T08:34:20;97868.63;;;17.08;81.75
14273;BME280;7220;49.450;11.052;2022-09-09T08:38:21;97867.59;;;17.21;81.75
14273;BME280;7220;49.450;11.052;2022-09-09T08:42:46;97868.94;;;17.36;81.13
14273;BME280;7220;49.450;11.052;2022-09-09T08:51:27;97869.34;;;17.62;78.25
14273;BME280;7220;49.450;11.052;2022-09-09T08:55:50;97864.16;;;17.80;77.71
14273;BME280;7220;49.450;11.052;2022-09-09T08:59:51;97869.31;;;17.93;76.37
14273;BME280;7220;49.450;11.052;2022-09-09T09:09:11;97872.81;;;18.25;74.84
14273;BME280;7220;49.450;11.052;2022-09-09T09:12:53;97875.38;;;18.46;74.22
14273;BME280;7220;49.450;11.052;2022-09-09T09:16:58;97879.94;;;18.65;72.49
14273;BME280;7220;49.450;11.052;2022-09-09T09:21:10;97865.75;;;18.83;68.13
14273;BME280;7220;49.450;11.052;2022-09-09T09:25:16;97869.44;;;19.01;67.51
14273;BME280;7220;49.450;11.052;2022-09-09T09:29:19;97859.06;;;19.16;66.13
14273;BME280;7220;49.450;11.052;2022-09-09T09:37:34;97850.91;;;19.46;64.57
14273;BME280;7220;49.450;11.052;2022-09-09T09:41:41;97860.31;;;19.69;64.11
14273;BME280;7220;49.450;11.052;2022-09-09T09:45:44;97851.03;;;19.82;61.10
14273;BME280;7220;49.450;11.052;2022-09-09T09:49:54;97846.56;;;20.00;61.68
14273;BME280;7220;49.450;11.052;2022-09-09T09:54:09;97830.94;;;20.22;61.65
14273;BME280;7220;49.450;11.052;2022-09-09T09:58:15;97829.56;;;20.54;59.06
14273;BME280;7220;49.450;11.052;2022-09-09T10:02:31;97846.69;;;20.81;58.55
14273;BME280;7220;49.450;11.052;2022-09-09T10:06:37;97828.44;;;21.01;57.53
14273;BME280;7220;49.450;11.052;2022-09-09T10:22:52;97823.78;;;21.38;56.71
14273;BME280;7220;49.450;11.052;2022-09-09T10:27:08;97823.19;;;21.52;55.60
14273;BME280;7220;49.450;11.052;2022-09-09T10:31:29;97814.13;;;21.62;55.53
14273;BME280;7220;49.450;11.052;2022-09-09T10:35:35;97815.31;;;21.67;54.92
14273;BME280;7220;49.450;11.052;2022-09-09T10:39:42;97798.00;;;21.86;54.08
14273;BME280;7220;49.450;11.052;2022-09-09T10:43:56;97806.34;;;22.10;52.60
14273;BME280;7220;49.450;11.052;2022-09-09T10:57:08;97812.13;;;22.15;52.46
14273;BME280;7220;49.450;11.052;2022-09-09T11:01:21;97800.09;;;22.09;52.71
14273;BME280;7220;49.450;11.052;2022-09-09T11:05:28;97801.06;;;21.92;53.47
14273;BME280;7220;49.450;11.052;2022-09-09T11:09:35;97806.94;;;21.79;53.34
14273;BME280;7220;49.450;11.052;2022-09-09T11:13:46;97796.25;;;21.69;53.84
14273;BME280;7220;49.450;11.052;2022-09-09T11:17:56;97800.28;;;21.65;54.29
14273;BME280;7220;49.450;11.052;2022-09-09T11:21:59;97811.81;;;21.75;54.14
14273;BME280;7220;49.450;11.052;2022-09-09T11:26:03;97798.84;;;21.87;53.57
14273;BME280;7220;49.450;11.052;2022-09-09T11:34:24;97794.69;;;22.09;52.84
14273;BME280;7220;49.450;11.052;2022-09-09T11:38:52;97792.66;;;22.19;51.97
14273;BME280;7220;49.450;11.052;2022-09-09T11:43:05;97786.16;;;22.55;52.03
14273;BME280;7220;49.450;11.052;2022-09-09T11:47:29;97797.47;;;22.67;51.65
14273;BME280;7220;49.450;11.052;2022-09-09T11:51:32;97790.69;;;22.55;51.29
14273;BME280;7220;49.450;11.052;2022-09-09T11:55:34;97787.97;;;22.46;51.56
14273;BME280;7220;49.450;11.052;2022-09-09T11:59:36;97787.78;;;22.40;50.70
14273;BME280;7220;49.450;11.052;2022-09-09T12:08:11;97782.19;;;22.25;49.98
14273;BME280;7220;49.450;11.052;2022-09-09T12:16:35;97788.59;;;22.24;50.24
14273;BME280;7220;49.450;11.052;2022-09-09T12:20:36;97776.91;;;23.30;49.98
14273;BME280;7220;49.450;11.052;2022-09-09T12:24:43;97772.59;;;23.53;48.89
14273;BME280;7220;49.450;11.052;2022-09-09T12:33:12;97763.53;;;24.78;40.10
14273;BME280;7220;49.450;11.052;2022-09-09T12:37:26;97750.22;;;26.25;37.77
14273;BME280;7220;49.450;11.052;2022-09-09T12:41:28;97756.19;;;26.35;37.78
14273;BME280;7220;49.450;11.052;2022-09-09T12:45:31;97764.09;;;26.52;37.25
14273;BME280;7220;49.450;11.052;2022-09-09T12:49:37;97763.84;;;27.53;36.90
14273;BME280;7220;49.450;11.052;2022-09-09T12:53:39;97749.38;;;26.68;38.46
14273;BME280;7220;49.450;11.052;2022-09-09T12:57:39;97760.72;;;26.71;38.52
14273;BME280;7220;49.450;11.052;2022-09-09T13:01:40;97785.88;;;25.93;39.53
14273;BME280;7220;49.450;11.052;2022-09-09T13:05:40;97798.34;;;25.13;41.29
14273;BME280;7220;49.450;11.052;2022-09-09T13:09:40;97800.22;;;24.51;43.71
14273;BME280;7220;49.450;11.052;2022-09-09T13:13:42;97787.38;;;23.82;45.09
14273;BME280;7220;49.450;11.052;2022-09-09T13:17:50;97796.91;;;23.77;45.51
14273;BME280;7220;49.450;11.052;2022-09-09T13:21:51;97804.66;;;23.49;46.54
14273;BME280;7220;49.450;11.052;2022-09-09T13:26:00;97779.84;;;24.00;46.59
14273;BME280;7220;49.450;11.052;2022-09-09T13:30:01;97781.50;;;24.33;44.44
14273;BME280;7220;49.450;11.052;2022-09-09T13:34:27;97753.28;;;25.18;42.97
14273;BME280;7220;49.450;11.052;2022-09-09T13:38:29;97752.44;;;25.99;40.82
14273;BME280;7220;49.450;11.052;2022-09-09T13:42:32;97754.56;;;26.41;39.88
14273;BME280;7220;49.450;11.052;2022-09-09T13:46:39;97739.56;;;26.52;39.84
14273;BME280;7220;49.450;11.052;2022-09-09T13:50:40;97750.31;;;26.82;37.97
14273;BME280;7220;49.450;11.052;2022-09-09T13:54:41;97751.13;;;26.54;37.81
14273;BME280;7220;49.450;11.052;2022-09-09T13:58:42;97749.34;;;26.03;39.58
14273;BME280;7220;49.450;11.052;2022-09-09T14:02:42;97738.91;;;25.55;40.38
14273;BME280;7220;49.450;11.052;2022-09-09T14:06:44;97732.81;;;25.38;40.16
14273;BME280;7220;49.450;11.052;2022-09-09T14:10:44;97731.69;;;25.17;40.50
14273;BME280;7220;49.450;11.052;2022-09-09T14:14:45;97745.16;;;24.80;41.58
14273;BME280;7220;49.450;11.052;2022-09-09T14:18:46;97748.91;;;24.56;42.24
14273;BME280;7220;49.450;11.052;2022-09-09T14:22:46;97736.38;;;24.32;43.62
14273;BME280;7220;49.450;11.052;2022-09-09T14:26:46;97750.00;;;24.00;44.25
14273;BME280;7220;49.450;11.052;2022-09-09T14:30:47;97754.97;;;23.48;45.65
14273;BME280;7220;49.450;11.052;2022-09-09T14:34:48;97770.31;;;23.08;47.49
14273;BME280;7220;49.450;11.052;2022-09-09T14:38:51;97774.94;;;22.75;48.32
14273;BME280;7220;49.450;11.052;2022-09-09T14:42:52;97785.47;;;22.61;49.63
14273;BME280;7220;49.450;11.052;2022-09-09T14:46:53;97790.69;;;22.46;50.54
14273;BME280;7220;49.450;11.052;2022-09-09T14:50:54;97787.09;;;22.29;51.54
14273;BME280;7220;49.450;11.052;2022-09-09T14:54:55;97796.03;;;22.21;52.07
14273;BME280;7220;49.450;11.052;2022-09-09T14:58:57;97800.97;;;22.34;52.05
14273;BME280;7220;49.450;11.052;2022-09-09T15:02:58;97788.44;;;22.25;52.73
14273;BME280;7220;49.450;11.052;2022-09-09T15:06:58;97774.72;;;22.10;53.32
14273;BME280;7220;49.450;11.052;2022-09-09T15:11:00;97777.28;;;22.28;52.88
14273;BME280;7220;49.450;11.052;2022-09-09T15:15:01;97772.09;;;22.43;52.59
14273;BME280;7220;49.450;11.052;2022-09-09T15:19:02;97765.47;;;22.37;52.44
14273;BME280;7220;49.450;11.052;2022-09-09T15:23:03;97754.44;;;22.22;52.69
14273;BME280;7220;49.450;11.052;2022-09-09T15:27:03;97742.28;;;22.27;52.63
14273;BME280;7220;49.450;11.052;2022-09-09T15:31:10;97744.47;;;22.48;51.28
14273;BME280;7220;49.450;11.052;2022-09-09T15:35:11;97743.78;;;22.29;52.07
14273;BME280;7220;49.450;11.052;2022-09-09T15:39:13;97737.19;;;22.15;52.66
14273;BME280;7220;49.450;11.052;2022-09-09T15:43:15;97731.44;;;22.18;51.66
14273;BME280;7220;49.450;11.052;2022-09-09T15:47:15;97739.91;;;22.24;49.13
14273;BME280;7220;49.450;11.052;2022-09-09T15:51:16;97738.19;;;22.06;48.58
14273;BME280;7220;49.450;11.052;2022-09-09T15:55:17;97723.78;;;21.89;46.78
14273;BME280;7220;49.450;11.052;2022-09-09T15:59:17;97725.28;;;21.83;46.46
14273;BME280;7220;49.450;11.052;2022-09-09T16:03:18;97737.78;;;21.76;45.83
14273;BME280;7220;49.450;11.052;2022-09-09T16:07:18;97733.38;;;21.67;45.21
14273;BME280;7220;49.450;11.052;2022-09-09T16:11:25;97738.69;;;21.50;45.40
14273;BME280;7220;49.450;11.052;2022-09-09T16:15:26;97739.00;;;21.39;46.66
14273;BME280;7220;49.450;11.052;2022-09-09T16:19:26;97757.94;;;21.47;46.34
14273;BME280;7220;49.450;11.052;2022-09-09T16:23:27;97760.00;;;21.53;46.21
14273;BME280;7220;49.450;11.052;2022-09-09T16:27:27;97764.81;;;21.68;46.24
14273;BME280;7220;49.450;11.052;2022-09-09T16:31:29;97770.25;;;21.76;46.19
14273;BME280;7220;49.450;11.052;2022-09-09T16:35:30;97769.31;;;22.18;45.49
14273;BME280;7220;49.450;11.052;2022-09-09T16:39:31;97776.41;;;22.03;45.67
14273;BME280;7220;49.450;11.052;2022-09-09T16:43:35;97778.75;;;21.98;45.96
14273;BME280;7220;49.450;11.052;2022-09-09T16:47:36;97781.59;;;21.88;45.46
14273;BME280;7220;49.450;11.052;2022-09-09T16:51:48;97785.97;;;21.81;45.74
14273;BME280;7220;49.450;11.052;2022-09-09T16:55:48;97792.03;;;21.66;46.46
14273;BME280;7220;49.450;11.052;2022-09-09T16:59:48;97792.09;;;21.56;46.73
14273;BME280;7220;49.450;11.052;2022-09-09T17:04:00;97793.94;;;21.48;46.92
14273;BME280;7220;49.450;11.052;2022-09-09T17:08:01;97793.19;;;21.37;47.46
14273;BME280;7220;49.450;11.052;2022-09-09T17:12:01;97793.63;;;21.24;47.21
14273;BME280;7220;49.450;11.052;2022-09-09T17:16:04;97805.03;;;21.10;47.92
14273;BME280;7220;49.450;11.052;2022-09-09T17:20:05;97817.06;;;20.89;48.58
14273;BME280;7220;49.450;11.052;2022-09-09T17:24:10;97819.91;;;20.70;48.82
14273;BME280;7220;49.450;11.052;2022-09-09T17:28:10;97818.75;;;20.54;49.47
14273;BME280;7220;49.450;11.052;2022-09-09T17:32:10;97821.00;;;20.41;49.27
14273;BME280;7220;49.450;11.052;2022-09-09T17:36:19;97827.63;;;20.28;49.65
14273;BME280;7220;49.450;11.052;2022-09-09T17:40:22;97829.84;;;20.15;49.79
14273;BME280;7220;49.450;11.052;2022-09-09T17:44:22;97826.53;;;20.03;50.47
14273;BME280;7220;49.450;11.052;2022-09-09T17:48:22;97835.69;;;19.92;50.66
14273;BME280;7220;49.450;11.052;2022-09-09T17:52:23;97831.16;;;19.83;51.40
14273;BME280;7220;49.450;11.052;2022-09-09T17:56:25;97824.38;;;19.79;51.33
14273;BME280;7220;49.450;11.052;2022-09-09T18:00:26;97837.75;;;19.70;52.24
14273;BME280;7220;49.450;11.052;2022-09-09T18:04:27;97836.63;;;19.63;52.39
14273;BME280;7220;49.450;11.052;2022-09-09T18:08:27;97838.38;;;19.54;52.65
14273;BME280;7220;49.450;11.052;2022-09-09T18:12:28;97851.91;;;19.45;52.28
14273;BME280;7220;49.450;11.052;2022-09-09T18:16:31;97854.03;;;19.41;52.06
14273;BME280;7220;49.450;11.052;2022-09-09T18:20:35;97855.75;;;19.32;52.24
14273;BME280;7220;49.450;11.052;2022-09-09T18:24:35;97869.53;;;19.29;52.34
14273;BME280;7220;49.450;11.052;2022-09-09T18:28:39;97877.91;;;19.26;51.86
14273;BME280;7220;49.450;11.052;2022-09-09T18:32:40;97901.72;;;19.21;51.96
14273;BME280;7220;49.450;11.052;2022-09-09T18:36:43;97925.41;;;19.07;68.50
14273;BME280;7220;49.450;11.052;2022-09-09T18:40:43;97917.34;;;17.77;80.16
14273;BME280;7220;49.450;11.052;2022-09-09T18:44:44;97921.16;;;16.68;87.56
14273;BME280;7220;49.450;11.052;2022-09-09T18:48:45;97914.97;;;16.01;92.34
14273;BME280;7220;49.450;11.052;2022-09-09T18:52:46;97900.84;;;15.54;95.10
14273;BME280;7220;49.450;11.052;2022-09-09T18:56:47;97902.75;;;15.29;97.28
14273;BME280;7220;49.450;11.052;2022-09-09T19:00:47;97921.84;;;15.13;99.87
14273;BME280;7220;49.450;11.052;2022-09-09T19:04:48;97919.88;;;15.04;100.00
14273;BME280;7220;49.450;11.052;2022-09-09T19:08:49;97920.34;;;14.97;100.00
14273;BME280;7220;49.450;11.052;2022-09-09T19:12:50;97936.88;;;15.03;100.00
14273;BME280;7220;49.450;11.052;2022-09-09T19:16:50;97940.41;;;15.03;100.00
14273;BME280;7220;49.450;11.052;2022-09-09T19:20:50;97933.72;;;14.97;100.00
14273;BME280;7220;49.450;11.052;2022-09-09T19:24:51;97949.94;;;15.07;100.00
14273;BME280;7220;49.450;11.052;2022-09-09T19:28:51;97958.56;;;15.11;100.00
14273;BME280;7220;49.450;11.052;2022-09-09T19:32:51;97950.31;;;15.14;100.00
14273;BME280;7220;49.450;11.052;2022-09-09T19:36:52;97960.78;;;15.17;100.00
14273;BME280;7220;49.450;11.052;2022-09-09T19:40:52;97965.91;;;15.20;100.00
14273;BME280;7220;49.450;11.052;2022-09-09T19:44:52;97963.84;;;15.24;100.00
14273;BME280;7220;49.450;11.052;2022-09-09T19:48:56;97976.75;;;15.30;100.00
14273;BME280;7220;49.450;11.052;2022-09-09T19:52:56;97964.34;;;15.29;100.00
14273;BME280;7220;49.450;11.052;2022-09-09T19:56:57;97965.91;;;15.32;100.00
14273;BME280;7220;49.450;11.052;2022-09-09T20:01:28;97963.00;;;15.35;100.00
14273;BME280;7220;49.450;11.052;2022-09-09T20:05:30;97963.00;;;15.35;100.00
14273;BME280;7220;49.450;11.052;2022-09-09T20:09:30;97955.94;;;15.34;100.00
14273;BME280;7220;49.450;11.052;2022-09-09T20:13:33;97957.44;;;15.38;100.00
14273;BME280;7220;49.450;11.052;2022-09-09T20:17:34;97955.72;;;15.37;100.00
14273;BME280;7220;49.450;11.052;2022-09-09T20:21:40;97976.66;;;15.43;100.00
14273;BME280;7220;49.450;11.052;2022-09-09T20:25:42;97980.31;;;15.42;100.00
14273;BME280;7220;49.450;11.052;2022-09-09T20:29:44;97992.84;;;15.41;100.00
14273;BME280;7220;49.450;11.052;2022-09-09T20:33:47;97987.94;;;15.35;100.00
14273;BME280;7220;49.450;11.052;2022-09-09T20:37:47;97992.31;;;15.25;100.00
14273;BME280;7220;49.450;11.052;2022-09-09T20:41:48;97986.44;;;15.20;100.00
14273;BME280;7220;49.450;11.052;2022-09-09T20:45:48;97984.38;;;15.12;100.00
14273;BME280;7220;49.450;11.052;2022-09-09T20:49:49;97980.94;;;15.10;100.00
14273;BME280;7220;49.450;11.052;2022-09-09T20:53:57;97976.69;;;15.07;100.00
14273;BME280;7220;49.450;11.052;2022-09-09T20:57:58;97979.72;;;15.03;100.00
14273;BME280;7220;49.450;11.052;2022-09-09T21:01:59;97971.91;;;14.99;100.00
14273;BME280;7220;49.450;11.052;2022-09-09T21:06:00;97967.75;;;14.95;100.00
14273;BME280;7220;49.450;11.052;2022-09-09T21:10:00;97967.03;;;14.93;100.00
14273;BME280;7220;49.450;11.052;2022-09-09T21:14:02;97965.66;;;14.88;100.00
14273;BME280;7220;49.450;11.052;2022-09-09T21:18:02;97963.56;;;14.80;100.00
14273;BME280;7220;49.450;11.052;2022-09-09T21:22:03;97956.72;;;14.76;100.00
14273;BME280;7220;49.450;11.052;2022-09-09T21:26:04;97965.97;;;14.72;100.00
14273;BME280;7220;49.450;11.052;2022-09-09T21:30:05;97974.31;;;14.67;100.00
14273;BME280;7220;49.450;11.052;2022-09-09T21:34:05;97982.66;;;14.62;100.00
14273;BME280;7220;49.450;11.052;2022-09-09T21:38:07;97979.22;;;14.60;100.00
14273;BME280;7220;49.450;11.052;2022-09-09T21:42:09;97981.16;;;14.58;100.00
14273;BME280;7220;49.450;11.052;2022-09-09T21:46:15;97988.00;;;14.62;100.00
14273;BME280;7220;49.450;11.052;2022-09-09T21:50:16;97975.59;;;14.61;100.00
14273;BME280;7220;49.450;11.052;2022-09-09T21:54:19;97977.53;;;14.59;100.00
14273;BME280;7220;49.450;11.052;2022-09-09T21:58:19;97977.31;;;14.62;100.00
14273;BME280;7220;49.450;11.052;2022-09-09T22:02:20;97975.38;;;14.64;100.00
14273;BME280;7220;49.450;11.052;2022-09-09T22:06:21;97989.28;;;14.70;100.00
14273;BME280;7220;49.450;11.052;2022-09-09T22:10:21;97985.44;;;14.74;100.00
14273;BME280;7220;49.450;11.052;2022-09-09T22:14:22;97990.53;;;14.77;100.00
14273;BME280;7220;49.450;11.052;2022-09-09T22:18:22;97968.00;;;14.68;100.00
14273;BME280;7220;49.450;11.052;2022-09-09T22:22:23;97986.41;;;14.73;100.00
14273;BME280;7220;49.450;11.052;2022-09-09T22:26:24;97983.94;;;14.70;99.62
14273;BME280;7220;49.450;11.052;2022-09-09T22:30:25;97994.50;;;14.71;99.43
14273;BME280;7220;49.450;11.052;2022-09-09T22:34:25;97999.03;;;14.71;99.68
14273;BME280;7220;49.450;11.052;2022-09-09T22:38:27;98002.53;;;14.71;99.50
14273;BME280;7220;49.450;11.052;2022-09-09T22:42:28;98001.91;;;14.67;100.00
14273;BME280;7220;49.450;11.052;2022-09-09T22:46:29;98005.63;;;14.65;100.00